Terminal Aerodrome Forecast
Issued by NWS

Home | Current Version | Previous Version | Text Only | Print | Product List | Glossary Off
Versions: 1 2 3 4 5 6 7 8 9 10 11 12

000
FTUS45 KGGW 241720
TAFOLF
TAF
KOLF 241720Z 2418/2518 33015KT P6SM FEW160
     FM250100 34009KT P6SM FEW230
     FM250500 VRB05KT P6SM SCT230
     FM251600 31009KT P6SM FEW080=

USA.gov is the U.S. government's official web portal to all federal, state and local government web resources and services.